createdAt,value
2022-08-07T00:01:43.687Z,101015.00
2022-08-07T00:04:40.857Z,101018.19
2022-08-07T00:07:44.984Z,101009.38
2022-08-07T00:10:58.263Z,101013.53
2022-08-07T00:14:01.668Z,101010.44
2022-08-07T00:17:04.804Z,101004.72
2022-08-07T00:20:10.525Z,101005.06
2022-08-07T00:23:21.349Z,101001.72
2022-08-07T00:26:49.389Z,100991.84
2022-08-07T00:29:46.913Z,101001.44
2022-08-07T00:32:50.052Z,101001.13
2022-08-07T00:35:53.063Z,101005.97
2022-08-07T00:38:57.129Z,100992.88
2022-08-07T00:42:05.144Z,100994.16
2022-08-07T00:45:10.232Z,100992.81
2022-08-07T00:48:19.552Z,100985.06
2022-08-07T00:51:27.937Z,100998.09
2022-08-07T00:54:53.962Z,100987.75
2022-08-07T00:57:57.624Z,100965.09
2022-08-07T01:01:00.495Z,100989.88
2022-08-07T01:04:07.317Z,100982.03
2022-08-07T01:07:10.697Z,100990.63
2022-08-07T01:10:15.298Z,100990.16
2022-08-07T01:13:21.716Z,100991.28
2022-08-07T01:16:30.463Z,100981.31
2022-08-07T01:19:34.780Z,100986.97
2022-08-07T01:23:00.516Z,100999.66
2022-08-07T01:26:06.352Z,100999.78
2022-08-07T01:29:09.688Z,100998.91
2022-08-07T01:32:13.742Z,101001.72
2022-08-07T01:35:17.419Z,101004.44
2022-08-07T01:38:24.812Z,101000.91
2022-08-07T01:41:29.657Z,101000.19
2022-08-07T01:44:35.661Z,100998.59
2022-08-07T01:48:19.127Z,101004.22
2022-08-07T01:51:24.509Z,100997.88
2022-08-07T01:54:33.018Z,100997.00
2022-08-07T01:58:06.847Z,100999.66
2022-08-07T02:01:25.404Z,100996.22
2022-08-07T02:04:52.410Z,100993.56
2022-08-07T02:08:02.249Z,100982.28
2022-08-07T02:11:08.604Z,100992.78
2022-08-07T02:14:36.001Z,100981.88
2022-08-07T02:17:40.542Z,100987.16
2022-08-07T02:20:48.693Z,100978.41
2022-08-07T02:23:55.176Z,100986.69
2022-08-07T02:27:02.975Z,100981.63
2022-08-07T02:30:08.672Z,100986.13
2022-08-07T02:33:13.491Z,100984.13
2022-08-07T02:36:28.644Z,100972.41
2022-08-07T02:39:43.097Z,100977.13
2022-08-07T02:42:49.712Z,100972.56
2022-08-07T02:45:58.956Z,100978.13
2022-08-07T02:49:05.782Z,100952.75
2022-08-07T02:52:12.892Z,100969.59
2022-08-07T02:55:27.517Z,100961.56
2022-08-07T02:58:47.089Z,100972.66
2022-08-07T03:01:52.212Z,100974.56
2022-08-07T03:05:05.202Z,100967.97
2022-08-07T03:08:10.586Z,100959.50
2022-08-07T03:11:15.148Z,100964.47
2022-08-07T03:14:22.600Z,100965.50
2022-08-07T03:17:26.376Z,100969.56
2022-08-07T03:20:30.683Z,100968.13
2022-08-07T03:24:19.559Z,100966.50
2022-08-07T03:27:01.580Z,100967.00
2022-08-07T03:30:08.566Z,100963.28
2022-08-07T03:33:14.756Z,100978.00
2022-08-07T03:36:20.090Z,100970.72
2022-08-07T03:39:46.069Z,100972.84
2022-08-07T03:42:54.152Z,100966.69
2022-08-07T03:46:00.149Z,100974.34
2022-08-07T03:49:05.942Z,100963.59
2022-08-07T03:52:22.795Z,100969.22
2022-08-07T03:55:48.715Z,100970.31
2022-08-07T03:59:07.114Z,100978.63
2022-08-07T04:02:14.966Z,100975.84
2022-08-07T04:05:28.682Z,100971.44
2022-08-07T04:08:44.376Z,100971.44
2022-08-07T04:12:20.690Z,100978.72
2022-08-07T04:15:16.802Z,100975.25
2022-08-07T04:18:58.500Z,100982.47
2022-08-07T04:21:48.070Z,100979.16
2022-08-07T04:25:02.649Z,100981.38
2022-08-07T04:28:06.418Z,100987.91
2022-08-07T04:31:19.672Z,100990.81
2022-08-07T04:34:32.879Z,100984.56
2022-08-07T04:37:52.697Z,100971.28
2022-08-07T04:40:59.603Z,100991.69
2022-08-07T04:44:12.819Z,100992.34
2022-08-07T04:48:01.615Z,100978.94
2022-08-07T04:51:09.153Z,100995.13
2022-08-07T04:54:22.859Z,100995.06
2022-08-07T04:58:27.315Z,101004.19
2022-08-07T05:01:15.768Z,101000.53
2022-08-07T05:04:29.136Z,100999.41
2022-08-07T05:07:48.176Z,101007.50
2022-08-07T05:11:02.853Z,101008.09
2022-08-07T05:14:52.970Z,101000.78
2022-08-07T05:17:51.899Z,101010.44
2022-08-07T05:21:00.303Z,101000.78
2022-08-07T05:24:07.756Z,100976.41
2022-08-07T05:28:01.862Z,101009.50
2022-08-07T05:30:39.841Z,101011.63
2022-08-07T05:34:00.929Z,101014.25
2022-08-07T05:37:08.853Z,101017.28
2022-08-07T05:40:19.277Z,101010.38
2022-08-07T05:43:49.611Z,101007.00
2022-08-07T05:46:51.253Z,101005.03
2022-08-07T05:49:55.469Z,101008.72
2022-08-07T05:52:58.611Z,101005.19
2022-08-07T05:56:05.934Z,100999.06
2022-08-07T05:59:16.274Z,100983.91
2022-08-07T06:02:28.463Z,100984.97
2022-08-07T06:05:32.277Z,100978.28
2022-08-07T06:08:39.183Z,100966.31
2022-08-07T06:11:47.114Z,100971.97
2022-08-07T06:14:50.799Z,100972.88
2022-08-07T06:17:55.222Z,100966.53
2022-08-07T06:22:15.599Z,100965.91
2022-08-07T06:24:45.663Z,100963.09
2022-08-07T06:28:01.061Z,100950.59
2022-08-07T06:31:04.788Z,100942.41
2022-08-07T06:34:08.912Z,100946.78
2022-08-07T06:37:17.220Z,100943.63
2022-08-07T06:40:23.483Z,100936.88
2022-08-07T06:43:40.138Z,100928.28
2022-08-07T06:46:53.315Z,100933.53
2022-08-07T06:50:04.033Z,100936.72
2022-08-07T06:53:18.535Z,100931.69
2022-08-07T06:56:49.394Z,100934.13
2022-08-07T07:00:11.806Z,100937.16
2022-08-07T07:03:26.360Z,100936.03
2022-08-07T07:07:00.297Z,100938.16
2022-08-07T07:10:05.278Z,100936.59
2022-08-07T07:13:13.587Z,100932.03
2022-08-07T07:16:23.175Z,100937.22
2022-08-07T07:19:57.375Z,100925.50
2022-08-07T07:24:10.105Z,100927.47
2022-08-07T07:26:32.658Z,100932.88
2022-08-07T07:30:08.999Z,100930.25
2022-08-07T07:33:12.284Z,100927.25
2022-08-07T07:36:17.375Z,100919.66
2022-08-07T07:39:22.654Z,100909.44
2022-08-07T07:42:33.248Z,100917.03
2022-08-07T07:46:53.418Z,100912.22
2022-08-07T07:49:08.908Z,100907.09
2022-08-07T07:52:28.094Z,100907.09
2022-08-07T07:55:37.487Z,100895.78
2022-08-07T07:58:42.339Z,100907.13
2022-08-07T08:02:01.529Z,100894.31
2022-08-07T08:05:14.442Z,100897.53
2022-08-07T08:08:35.708Z,100899.03
2022-08-07T08:11:59.780Z,100890.13
2022-08-07T08:15:06.961Z,100898.16
2022-08-07T08:18:17.849Z,100890.06
2022-08-07T08:22:00.772Z,100891.28
2022-08-07T08:25:27.013Z,100895.28
2022-08-07T08:28:46.657Z,100903.88
2022-08-07T08:32:16.930Z,100900.47
2022-08-07T08:35:16.390Z,100901.28
2022-08-07T08:38:29.547Z,100900.44
2022-08-07T08:41:58.314Z,100900.78
2022-08-07T08:45:13.421Z,100898.66
2022-08-07T08:48:28.560Z,100883.34
2022-08-07T08:52:12.627Z,100880.13
2022-08-07T08:55:12.153Z,100898.03
2022-08-07T08:58:33.068Z,100882.69
2022-08-07T09:01:49.037Z,100888.59
2022-08-07T09:04:59.036Z,100887.47
2022-08-07T09:08:17.964Z,100873.56
2022-08-07T09:11:50.432Z,100868.50
2022-08-07T09:16:20.466Z,100866.13
2022-08-07T09:18:53.443Z,100867.50
2022-08-07T09:24:29.183Z,100872.78
2022-08-07T09:25:54.418Z,100862.56
2022-08-07T09:30:00.661Z,100852.97
2022-08-07T09:32:54.260Z,100841.63
2022-08-07T09:36:05.836Z,100824.47
2022-08-07T09:39:52.935Z,100846.06
2022-08-07T09:42:53.655Z,100831.19
2022-08-07T09:47:24.104Z,100830.69
2022-08-07T09:50:01.711Z,100825.66
2022-08-07T09:53:10.057Z,100799.13
2022-08-07T09:56:47.703Z,100795.81
2022-08-07T10:00:08.198Z,100807.78
2022-08-07T10:04:05.777Z,100771.03
2022-08-07T10:07:39.887Z,100790.88
2022-08-07T10:11:16.699Z,100795.72
2022-08-07T10:14:30.356Z,100791.19
2022-08-07T10:18:02.604Z,100780.94
2022-08-07T10:22:12.294Z,100785.16
2022-08-07T10:25:04.973Z,100772.13
2022-08-07T10:28:23.620Z,100770.41
2022-08-07T10:31:42.991Z,100742.16
2022-08-07T10:35:09.120Z,100761.97
2022-08-07T10:38:48.029Z,100760.38
2022-08-07T10:42:09.693Z,100733.59
2022-08-07T10:45:48.016Z,100745.38
2022-08-07T10:49:00.325Z,100744.06
2022-08-07T10:52:13.159Z,100752.66
2022-08-07T10:55:37.300Z,100740.56
2022-08-07T10:58:59.770Z,100741.00
2022-08-07T11:02:33.027Z,100737.19
2022-08-07T11:05:50.760Z,100729.63
2022-08-07T11:08:59.743Z,100729.06
2022-08-07T11:12:12.508Z,100702.69
2022-08-07T11:15:31.538Z,100710.13
2022-08-07T11:18:39.084Z,100719.28
2022-08-07T11:21:48.139Z,100712.25
2022-08-07T11:24:58.709Z,100693.13
2022-08-07T11:28:17.512Z,100695.25
2022-08-07T11:31:34.918Z,100702.38
2022-08-07T11:34:46.248Z,100688.13
2022-08-07T11:38:10.278Z,100687.75
2022-08-07T11:41:28.307Z,100683.25
2022-08-07T11:44:57.613Z,100682.09
2022-08-07T11:48:32.106Z,100676.97
2022-08-07T11:51:51.920Z,100668.06
2022-08-07T11:55:07.382Z,100664.66
2022-08-07T11:58:38.326Z,100660.31
2022-08-07T12:02:00.751Z,100663.69
2022-08-07T12:05:15.302Z,100659.09
2022-08-07T12:08:35.995Z,100661.47
2022-08-07T12:12:10.267Z,100652.06
2022-08-07T12:15:17.420Z,100657.84
2022-08-07T12:18:46.421Z,100641.28
2022-08-07T12:22:37.603Z,100654.53
2022-08-07T12:26:21.777Z,100642.94
2022-08-07T12:29:20.316Z,100642.13
2022-08-07T12:32:44.788Z,100639.97
2022-08-07T12:35:57.923Z,100635.72
2022-08-07T12:39:38.830Z,100627.22
2022-08-07T12:42:32.155Z,100624.81
2022-08-07T12:45:52.567Z,100619.72
2022-08-07T12:49:09.775Z,100619.78
2022-08-07T12:52:46.254Z,100609.41
2022-08-07T12:56:03.414Z,100616.81
2022-08-07T12:59:09.393Z,100574.91
2022-08-07T13:02:58.025Z,100603.25
2022-08-07T13:06:21.666Z,100611.31
2022-08-07T13:10:37.326Z,100612.44
2022-08-07T13:13:48.409Z,100599.50
2022-08-07T13:16:56.112Z,100584.66
2022-08-07T13:20:08.674Z,100598.94
2022-08-07T13:24:03.870Z,100591.00
2022-08-07T13:26:47.038Z,100564.38
2022-08-07T13:29:56.440Z,100583.63
2022-08-07T13:33:16.386Z,100552.16
2022-08-07T13:36:40.484Z,100577.53
2022-08-07T13:40:36.187Z,100572.06
2022-08-07T13:43:16.351Z,100562.06
2022-08-07T13:46:24.893Z,100558.06
2022-08-07T13:50:33.936Z,100563.25
2022-08-07T13:53:00.567Z,100558.44
2022-08-07T13:56:04.907Z,100555.88
2022-08-07T13:59:15.733Z,100553.81
2022-08-07T14:02:32.169Z,100537.97
2022-08-07T14:05:49.313Z,100549.28
2022-08-07T14:08:59.479Z,100540.28
2022-08-07T14:12:10.806Z,100547.41
2022-08-07T14:15:32.128Z,100536.59
2022-08-07T14:18:49.760Z,100533.31
2022-08-07T14:22:10.771Z,100538.69
2022-08-07T14:25:18.645Z,100538.06
2022-08-07T14:28:55.980Z,100533.13
2022-08-07T14:31:56.075Z,100528.81
2022-08-07T14:35:04.116Z,100527.63
2022-08-07T14:38:09.491Z,100519.13
2022-08-07T14:41:33.984Z,100514.50
2022-08-07T14:45:22.372Z,100516.56
2022-08-07T14:48:33.332Z,100511.91
2022-08-07T14:52:04.530Z,100505.44
2022-08-07T14:55:03.877Z,100515.53
2022-08-07T14:58:08.873Z,100518.66
2022-08-07T15:01:42.808Z,100509.78
2022-08-07T15:04:56.363Z,100505.13
2022-08-07T15:08:08.768Z,100505.63
2022-08-07T15:11:16.851Z,100501.78
2022-08-07T15:14:57.644Z,100505.44
2022-08-07T15:18:05.830Z,100491.19
2022-08-07T15:21:45.071Z,100496.59
2022-08-07T15:25:15.253Z,100493.28
2022-08-07T15:28:34.616Z,100495.91
2022-08-07T15:31:57.758Z,100487.72
2022-08-07T15:35:06.620Z,100496.44
2022-08-07T15:38:17.665Z,100480.44
2022-08-07T15:42:43.933Z,100476.28
2022-08-07T15:45:09.410Z,100476.28
2022-08-07T15:48:23.008Z,100468.97
2022-08-07T15:54:56.828Z,100472.63
2022-08-07T15:58:08.552Z,100461.84
2022-08-07T16:01:20.339Z,100465.66
2022-08-07T16:04:29.817Z,100464.47
2022-08-07T16:08:32.378Z,100458.72
2022-08-07T16:11:32.232Z,100448.81
2022-08-07T16:15:00.273Z,100446.75
2022-08-07T16:18:12.632Z,100449.84
2022-08-07T16:22:04.323Z,100446.22
2022-08-07T16:25:54.379Z,100440.31
2022-08-07T16:29:18.550Z,100446.75
2022-08-07T16:32:40.071Z,100447.25
2022-08-07T16:36:20.382Z,100429.00
2022-08-07T16:39:48.600Z,100444.13
2022-08-07T16:43:05.159Z,100445.69
2022-08-07T16:47:06.475Z,100444.94
2022-08-07T16:50:37.237Z,100444.59
2022-08-07T16:54:19.124Z,100449.25
2022-08-07T16:58:01.050Z,100446.28
2022-08-07T17:01:15.688Z,100448.66
2022-08-07T17:04:34.853Z,100461.13
2022-08-07T17:07:57.910Z,100453.78
2022-08-07T17:11:06.660Z,100440.13
2022-08-07T17:14:18.570Z,100458.31
2022-08-07T17:17:46.751Z,100443.81
2022-08-07T17:20:53.928Z,100455.06
2022-08-07T17:24:04.904Z,100451.91
2022-08-07T17:27:19.900Z,100460.50
2022-08-07T17:30:27.709Z,100453.00
2022-08-07T17:33:39.200Z,100466.31
2022-08-07T17:37:14.368Z,100459.69
2022-08-07T17:40:33.098Z,100461.66
2022-08-07T17:44:03.171Z,100452.34
2022-08-07T17:47:08.419Z,100460.75
2022-08-07T17:50:19.086Z,100463.00
2022-08-07T17:54:01.222Z,100468.78
2022-08-07T17:57:00.347Z,100472.59
2022-08-07T18:00:06.533Z,100474.84
2022-08-07T18:03:21.504Z,100484.72
2022-08-07T18:06:39.241Z,100486.66
2022-08-07T18:10:07.576Z,100482.88
2022-08-07T18:13:40.455Z,100497.34
2022-08-07T18:16:57.523Z,100495.09
2022-08-07T18:21:10.479Z,100472.19
2022-08-07T18:23:43.092Z,100506.38
2022-08-07T18:27:17.351Z,100515.09
2022-08-07T18:30:31.339Z,100519.31
2022-08-07T18:33:57.254Z,100524.53
2022-08-07T18:37:15.027Z,100526.72
2022-08-07T18:40:59.819Z,100514.47
2022-08-07T18:44:27.626Z,100523.75
2022-08-07T18:47:44.836Z,100531.59
2022-08-07T18:51:06.503Z,100540.13
2022-08-07T18:54:31.590Z,100544.44
2022-08-07T18:57:44.552Z,100550.66
2022-08-07T19:01:21.816Z,100553.56
2022-08-07T19:04:57.405Z,100562.22
2022-08-07T19:08:14.942Z,100568.50
2022-08-07T19:11:36.639Z,100568.59
2022-08-07T19:15:00.604Z,100581.72
2022-08-07T19:18:34.712Z,100589.28
2022-08-07T19:21:56.224Z,100584.88
2022-08-07T19:26:23.664Z,100605.97
2022-08-07T19:30:54.256Z,100612.00
2022-08-07T19:32:17.393Z,100610.00
2022-08-07T19:35:33.747Z,100609.03
2022-08-07T19:38:53.282Z,100616.53
2022-08-07T19:42:08.262Z,100623.84
2022-08-07T19:46:04.875Z,100621.88
2022-08-07T19:48:53.693Z,100633.78
2022-08-07T19:52:00.585Z,100631.41
2022-08-07T19:55:04.519Z,100631.03
2022-08-07T19:58:18.286Z,100635.44
2022-08-07T20:01:22.081Z,100634.94
2022-08-07T20:04:31.072Z,100642.94
2022-08-07T20:07:46.639Z,100640.03
2022-08-07T20:14:20.974Z,100648.41
2022-08-07T20:17:38.820Z,100660.91
2022-08-07T20:20:43.453Z,100661.91
2022-08-07T20:23:54.090Z,100671.38
2022-08-07T20:27:02.294Z,100668.09
2022-08-07T20:30:11.595Z,100676.06
2022-08-07T20:33:36.873Z,100679.16
2022-08-07T20:36:42.580Z,100679.31
2022-08-07T20:40:03.834Z,100672.38
2022-08-07T20:43:19.285Z,100669.91
2022-08-07T20:46:32.332Z,100680.31
2022-08-07T20:50:00.532Z,100677.19
2022-08-07T20:53:05.797Z,100675.69
2022-08-07T20:56:11.348Z,100672.38
2022-08-07T21:00:05.178Z,100674.84
2022-08-07T21:03:00.975Z,100671.91
2022-08-07T21:06:21.829Z,100672.50
2022-08-07T21:09:35.579Z,100675.81
2022-08-07T21:13:00.690Z,100664.91
2022-08-07T21:16:06.232Z,100670.00
2022-08-07T21:19:13.850Z,100675.91
2022-08-07T21:22:19.487Z,100676.25
2022-08-07T21:25:29.941Z,100685.13
2022-08-07T21:28:50.915Z,100681.88
2022-08-07T21:32:42.754Z,100681.41
2022-08-07T21:35:34.788Z,100677.25
2022-08-07T21:39:46.128Z,100686.06
2022-08-07T21:42:42.417Z,100689.34
2022-08-07T21:46:10.609Z,100684.53
2022-08-07T21:49:28.090Z,100689.69
2022-08-07T21:52:42.099Z,100694.84
2022-08-07T21:55:54.686Z,100692.53
2022-08-07T21:59:06.644Z,100708.66
2022-08-07T22:02:19.994Z,100704.34
2022-08-07T22:05:45.270Z,100698.31
2022-08-07T22:08:55.513Z,100698.72
2022-08-07T22:12:07.173Z,100700.16
2022-08-07T22:16:40.235Z,100703.28
2022-08-07T22:18:55.360Z,100706.00
2022-08-07T22:22:10.660Z,100706.44
2022-08-07T22:25:27.952Z,100711.56
2022-08-07T22:28:53.183Z,100711.19
2022-08-07T22:32:05.752Z,100717.66
2022-08-07T22:35:12.103Z,100720.91
2022-08-07T22:38:25.637Z,100721.19
2022-08-07T22:42:03.502Z,100728.75
2022-08-07T22:45:02.394Z,100716.09
2022-08-07T22:48:31.749Z,100735.03
2022-08-07T22:51:58.176Z,100740.81
2022-08-07T22:55:30.021Z,100745.59
2022-08-07T22:58:58.210Z,100744.31
2022-08-07T23:02:15.269Z,100751.94
2022-08-07T23:06:09.575Z,100753.22
2022-08-07T23:10:03.999Z,100748.44
2022-08-07T23:12:59.758Z,100749.59
2022-08-07T23:16:48.499Z,100742.59
2022-08-07T23:20:03.404Z,100748.38
2022-08-07T23:24:05.567Z,100739.75
2022-08-07T23:27:13.872Z,100744.63
2022-08-07T23:30:38.188Z,100741.09
2022-08-07T23:34:34.701Z,100739.56
2022-08-07T23:38:00.746Z,100744.31
2022-08-07T23:41:17.430Z,100740.22
2022-08-07T23:44:38.767Z,100736.13
2022-08-07T23:48:02.566Z,100749.88
2022-08-07T23:51:12.387Z,100743.72
2022-08-07T23:54:46.188Z,100740.38
2022-08-07T23:57:54.991Z,100741.34
